Time;durP1;ratioP1;P1;durP2;ratioP2;P2;SDS_P1;SDS_P2;PMS_P1;PMS_P2;Temp;Humidity;BMP_temperature;BMP_pressure;BME280_temperature;BME280_humidity;BME280_pressure;Samples;Min_cycle;Max_cycle;Signal;HPM_P1;HPM_P2
2023/08/18 00:00:43;;;;;;;7.00;4.30;;;;;;;20.06;100.00;100089.22;5007240;28;20720;-65
2023/08/18 00:03:09;;;;;;;4.30;3.90;;;;;;;20.02;100.00;100090.47;5022273;28;20175;-65
2023/08/18 00:05:34;;;;;;;6.73;4.67;;;;;;;20.00;100.00;100088.81;5011925;28;20248;-64
2023/08/18 00:07:59;;;;;;;6.00;4.53;;;;;;;19.97;100.00;100086.50;5011885;28;20186;-65
2023/08/18 00:10:24;;;;;;;4.70;4.30;;;;;;;19.97;100.00;100086.50;5004786;28;20541;-64
2023/08/18 00:12:50;;;;;;;5.90;4.70;;;;;;;19.96;100.00;100095.31;5025083;28;20183;-64
2023/08/18 00:15:15;;;;;;;5.00;4.60;;;;;;;19.94;100.00;100085.97;5011611;28;20175;-63
2023/08/18 00:17:42;;;;;;;5.50;4.60;;;;;;;19.94;100.00;100078.94;5012071;28;20238;-64
2023/08/18 00:20:08;;;;;;;5.67;4.83;;;;;;;19.94;100.00;100081.56;5003176;28;20179;-64
2023/08/18 00:22:34;;;;;;;5.10;4.60;;;;;;;19.93;100.00;100082.56;5046008;28;20212;-63
2023/08/18 00:24:59;;;;;;;5.40;4.87;;;;;;;19.95;100.00;100078.00;5031313;28;20233;-65
2023/08/18 00:27:24;;;;;;;7.00;4.90;;;;;;;19.94;100.00;100080.75;5031891;28;20201;-65
2023/08/18 00:29:50;;;;;;;7.00;4.63;;;;;;;19.92;100.00;100077.44;5031361;28;20174;-65
2023/08/18 00:32:15;;;;;;;4.43;4.10;;;;;;;19.91;100.00;100076.66;5011371;28;20230;-64
2023/08/18 00:34:40;;;;;;;5.27;4.67;;;;;;;19.88;100.00;100084.75;5010885;28;20201;-64
2023/08/18 00:37:06;;;;;;;4.37;4.03;;;;;;;19.88;100.00;100079.53;5011761;28;20240;-64
2023/08/18 00:39:31;;;;;;;5.93;4.43;;;;;;;19.85;100.00;100082.44;5011754;28;20217;-64
2023/08/18 00:41:57;;;;;;;8.57;4.93;;;;;;;19.82;100.00;100085.28;5003663;28;20299;-63
2023/08/18 00:44:22;;;;;;;7.40;4.90;;;;;;;19.77;100.00;100077.06;5011829;28;20198;-62
2023/08/18 00:46:47;;;;;;;6.87;4.60;;;;;;;19.75;100.00;100086.88;5011875;28;20183;-63
2023/08/18 00:49:16;;;;;;;7.20;5.30;;;;;;;19.69;100.00;100093.47;5011642;28;20252;-64
2023/08/18 00:51:41;;;;;;;6.60;4.93;;;;;;;19.73;100.00;100092.19;5027457;28;20337;-64
2023/08/18 00:54:07;;;;;;;5.83;4.80;;;;;;;19.68;100.00;100092.66;5033718;28;20221;-64
2023/08/18 00:56:33;;;;;;;5.77;4.33;;;;;;;19.59;100.00;100087.47;5031408;28;20170;-63
2023/08/18 00:58:59;;;;;;;5.23;4.70;;;;;;;19.54;100.00;100087.06;5031205;28;20212;-64
2023/08/18 01:01:24;;;;;;;5.53;5.00;;;;;;;19.52;100.00;100089.81;5013585;28;20226;-63
2023/08/18 01:03:50;;;;;;;5.57;5.07;;;;;;;19.55;100.00;100080.88;4996767;28;20554;-63
2023/08/18 01:06:15;;;;;;;5.73;5.00;;;;;;;19.52;100.00;100081.97;5010864;28;20197;-63
2023/08/18 01:08:40;;;;;;;9.20;5.10;;;;;;;19.51;100.00;100083.78;5011487;28;20190;-64
2023/08/18 01:11:17;;;;;;;5.90;5.30;;;;;;;19.46;100.00;100079.94;5009582;28;20633;-63
2023/08/18 01:14:07;;;;;;;10.70;5.17;;;;;;;19.41;100.00;100077.78;5004885;28;20536;-63
2023/08/18 01:16:35;;;;;;;6.10;5.50;;;;;;;19.38;100.00;100077.22;5011153;28;20258;-64
2023/08/18 01:19:00;;;;;;;6.47;5.60;;;;;;;19.33;100.00;100078.47;5011655;28;20637;-63
2023/08/18 01:21:26;;;;;;;10.63;5.50;;;;;;;19.32;100.00;100070.78;5019093;28;20233;-64
2023/08/18 01:23:51;;;;;;;6.10;5.53;;;;;;;19.29;100.00;100076.31;5026726;28;20711;-63
2023/08/18 01:26:16;;;;;;;6.20;5.57;;;;;;;19.30;100.00;100075.31;5030698;28;20587;-64
2023/08/18 01:28:43;;;;;;;8.00;6.37;;;;;;;19.31;100.00;100064.75;5030157;28;20261;-65
2023/08/18 01:31:17;;;;;;;6.30;5.70;;;;;;;19.33;100.00;100070.63;5019090;28;20313;-63
2023/08/18 01:33:45;;;;;;;6.67;6.00;;;;;;;19.39;100.00;100071.88;5017044;28;20194;-63
2023/08/18 01:36:27;;;;;;;6.17;5.67;;;;;;;19.34;100.00;100071.47;5009485;28;20581;-64
2023/08/18 01:38:54;;;;;;;6.80;5.77;;;;;;;19.45;100.00;100073.06;5011792;28;20213;-64
2023/08/18 01:41:23;;;;;;;6.70;6.00;;;;;;;19.29;100.00;100073.69;5014579;28;20250;-64
2023/08/18 01:43:48;;;;;;;6.73;6.03;;;;;;;19.38;100.00;100072.03;5019641;28;20645;-64
2023/08/18 01:46:14;;;;;;;6.70;6.10;;;;;;;19.43;100.00;100067.19;5014545;28;20187;-64
2023/08/18 01:48:39;;;;;;;6.87;6.27;;;;;;;19.40;100.00;100068.31;5015024;28;20682;-64
2023/08/18 01:51:04;;;;;;;7.90;6.47;;;;;;;19.49;100.00;100059.59;5020317;28;20233;-64
2023/08/18 01:53:30;;;;;;;8.67;6.50;;;;;;;19.46;100.00;100064.28;5032307;28;20293;-63
2023/08/18 01:55:55;;;;;;;6.77;6.20;;;;;;;19.44;100.00;100056.59;5033682;28;20224;-64
2023/08/18 01:58:20;;;;;;;10.73;6.70;;;;;;;19.46;100.00;100052.09;5034345;28;20197;-63
2023/08/18 02:00:45;;;;;;;7.77;6.57;;;;;;;19.45;100.00;100060.03;5023910;28;20739;-63
2023/08/18 02:03:11;;;;;;;8.50;6.40;;;;;;;19.35;100.00;100060.91;5024030;28;20183;-63
2023/08/18 02:05:39;;;;;;;7.73;6.13;;;;;;;19.32;100.00;100061.16;5013981;28;20208;-63
2023/08/18 02:08:06;;;;;;;7.23;6.53;;;;;;;19.37;100.00;100055.53;5014772;28;20179;-63
2023/08/18 02:10:31;;;;;;;8.03;6.60;;;;;;;19.43;100.00;100047.13;5007879;28;20268;-63
2023/08/18 02:12:56;;;;;;;7.47;6.70;;;;;;;19.40;100.00;100047.44;5025441;28;20207;-63
2023/08/18 02:15:21;;;;;;;9.53;6.47;;;;;;;19.44;100.00;100040.16;5013968;28;20655;-63
2023/08/18 02:17:47;;;;;;;7.33;6.70;;;;;;;19.52;100.00;100042.84;5013838;28;20223;-63
2023/08/18 02:20:12;;;;;;;8.17;6.00;;;;;;;19.50;100.00;100039.59;5005503;28;20186;-64
2023/08/18 02:22:37;;;;;;;6.60;6.10;;;;;;;19.55;100.00;100034.75;5027950;28;20183;-64
2023/08/18 02:25:03;;;;;;;8.63;6.07;;;;;;;19.51;100.00;100031.59;5013717;28;20170;-63
2023/08/18 02:27:28;;;;;;;6.63;6.03;;;;;;;19.61;100.00;100034.19;5014144;28;20175;-64
2023/08/18 02:29:54;;;;;;;6.70;6.10;;;;;;;19.57;100.00;100027.56;5014118;28;20313;-64
2023/08/18 02:32:19;;;;;;;6.90;6.20;;;;;;;19.60;100.00;100034.31;5019184;28;20230;-63
2023/08/18 02:34:45;;;;;;;6.17;5.50;;;;;;;19.63;100.00;100031.41;5013499;28;20229;-64
2023/08/18 02:37:11;;;;;;;6.87;6.17;;;;;;;19.62;100.00;100034.97;5013932;28;20187;-63
2023/08/18 02:39:37;;;;;;;9.63;5.87;;;;;;;19.64;100.00;100030.44;5013535;28;20209;-63
2023/08/18 02:42:03;;;;;;;6.80;6.10;;;;;;;19.59;100.00;100027.47;5035018;28;20676;-63
2023/08/18 02:44:28;;;;;;;7.00;6.30;;;;;;;19.61;100.00;100020.28;5032835;28;20175;-63
2023/08/18 02:46:53;;;;;;;9.30;5.90;;;;;;;19.60;100.00;100022.09;5033330;28;20596;-63
2023/08/18 02:49:19;;;;;;;6.60;5.93;;;;;;;19.52;100.00;100020.22;5032728;28;20170;-64
2023/08/18 02:51:44;;;;;;;6.57;5.90;;;;;;;19.51;100.00;100015.13;5034825;28;20690;-62
2023/08/18 02:54:09;;;;;;;6.50;5.90;;;;;;;19.50;100.00;100016.09;5034790;28;20204;-63
2023/08/18 02:56:34;;;;;;;6.37;5.80;;;;;;;19.50;100.00;100018.72;5033557;28;20583;-64
2023/08/18 02:59:00;;;;;;;6.37;5.73;;;;;;;19.48;100.00;100018.03;5033169;28;20198;-63
2023/08/18 03:01:25;;;;;;;6.57;6.07;;;;;;;19.46;100.00;100019.94;5034305;28;20626;-64
2023/08/18 03:03:50;;;;;;;7.73;5.77;;;;;;;19.38;100.00;100025.06;5037087;28;20261;-63
2023/08/18 03:06:15;;;;;;;7.10;6.43;;;;;;;19.33;100.00;100018.47;5032609;28;20240;-63
2023/08/18 03:08:41;;;;;;;8.03;6.73;;;;;;;19.32;100.00;100021.25;5033134;28;20186;-63
2023/08/18 03:11:06;;;;;;;7.27;6.60;;;;;;;19.25;100.00;100020.16;5022562;28;20329;-64
2023/08/18 03:13:32;;;;;;;7.00;6.33;;;;;;;19.15;100.00;100015.81;5019943;28;20183;-64
2023/08/18 03:15:57;;;;;;;7.00;6.40;;;;;;;19.11;100.00;100024.03;5012979;28;20182;-64
2023/08/18 03:18:23;;;;;;;12.00;6.87;;;;;;;19.08;100.00;100025.16;5012944;28;20230;-63
2023/08/18 03:20:49;;;;;;;7.97;7.17;;;;;;;19.05;100.00;100022.81;5015493;28;20229;-64
2023/08/18 03:23:17;;;;;;;9.93;6.77;;;;;;;19.02;100.00;100023.09;5041096;28;20587;-63
2023/08/18 03:25:42;;;;;;;9.00;7.47;;;;;;;18.96;100.00;100021.06;5030858;28;20555;-65
2023/08/18 03:28:07;;;;;;;12.13;7.60;;;;;;;18.86;100.00;100032.28;5032665;28;20189;-63
2023/08/18 03:30:37;;;;;;;7.97;7.27;;;;;;;18.78;100.00;100034.78;5002214;28;20249;-63
2023/08/18 03:33:03;;;;;;;8.90;7.30;;;;;;;18.80;100.00;100035.44;5026831;28;20344;-63
2023/08/18 03:35:30;;;;;;;8.43;7.13;;;;;;;18.82;100.00;100035.31;5032207;28;20198;-63
2023/08/18 03:37:55;;;;;;;7.80;7.10;;;;;;;18.82;100.00;100037.94;5032244;28;20182;-64
2023/08/18 03:40:20;;;;;;;7.80;7.20;;;;;;;18.81;100.00;100039.69;5022321;28;20632;-64
2023/08/18 03:42:46;;;;;;;8.00;7.27;;;;;;;18.80;100.00;100045.84;5024494;28;20264;-64
2023/08/18 03:45:11;;;;;;;9.77;7.47;;;;;;;18.78;100.00;100037.38;5012867;28;20197;-63
2023/08/18 03:47:36;;;;;;;8.40;7.70;;;;;;;18.73;100.00;100046.56;5011874;28;20174;-66
2023/08/18 03:50:04;;;;;;;9.23;8.33;;;;;;;18.67;100.00;100047.94;5011561;28;20589;-64
2023/08/18 03:52:29;;;;;;;8.90;7.70;;;;;;;18.63;100.00;100055.22;5046767;28;20198;-64
2023/08/18 03:54:54;;;;;;;8.73;7.73;;;;;;;18.61;100.00;100054.50;5031834;28;20263;-64
2023/08/18 03:57:20;;;;;;;10.97;8.20;;;;;;;18.62;100.00;100055.31;5032037;28;20178;-64
2023/08/18 03:59:45;;;;;;;8.77;7.73;;;;;;;18.64;100.00;100056.84;5032070;28;20201;-63
2023/08/18 04:02:10;;;;;;;8.57;7.77;;;;;;;18.68;100.00;100060.00;5019520;28;20221;-64
2023/08/18 04:04:35;;;;;;;8.83;8.03;;;;;;;18.67;100.00;100059.19;5012029;28;20241;-63
2023/08/18 04:07:01;;;;;;;10.20;7.37;;;;;;;18.72;100.00;100058.78;5012193;28;20599;-63
2023/08/18 04:09:26;;;;;;;8.60;7.80;;;;;;;18.81;100.00;100067.53;5012114;28;20269;-64
2023/08/18 04:11:52;;;;;;;8.63;7.83;;;;;;;18.87;100.00;100061.78;5030835;28;20233;-63
2023/08/18 04:14:18;;;;;;;9.37;7.30;;;;;;;18.89;100.00;100054.66;5032676;28;20597;-64
2023/08/18 04:16:45;;;;;;;12.00;7.77;;;;;;;18.85;100.00;100058.47;5031987;28;20177;-64
2023/08/18 04:19:10;;;;;;;8.80;7.90;;;;;;;18.87;100.00;100056.56;5031837;28;20202;-64
2023/08/18 04:21:35;;;;;;;8.43;7.73;;;;;;;18.84;100.00;100057.66;5020838;28;20642;-64
2023/08/18 04:24:00;;;;;;;7.80;7.10;;;;;;;18.90;100.00;100058.06;5014800;28;20175;-64
2023/08/18 04:26:29;;;;;;;8.23;7.40;;;;;;;18.88;100.00;100066.03;5011717;28;20604;-63
2023/08/18 04:28:54;;;;;;;8.43;7.37;;;;;;;18.93;100.00;100066.47;5011939;28;20186;-63
2023/08/18 04:31:19;;;;;;;7.67;6.67;;;;;;;18.95;100.00;100063.72;5015285;28;20301;-63
2023/08/18 04:33:45;;;;;;;10.50;7.87;;;;;;;18.93;100.00;100063.03;5031293;28;20182;-63
2023/08/18 04:36:10;;;;;;;12.40;9.60;;;;;;;18.95;100.00;100061.94;5031201;28;20182;-63
2023/08/18 04:38:35;;;;;;;14.67;11.67;;;;;;;18.98;100.00;100059.06;5031353;28;20228;-64
2023/08/18 04:41:02;;;;;;;8.40;7.70;;;;;;;18.93;100.00;100065.63;5020384;28;21186;-64
2023/08/18 04:43:29;;;;;;;8.60;7.67;;;;;;;18.98;100.00;100066.88;5019443;28;20638;-64
2023/08/18 04:45:54;;;;;;;8.33;7.53;;;;;;;19.02;100.00;100064.81;5011085;28;20210;-63
2023/08/18 04:48:21;;;;;;;8.17;7.47;;;;;;;19.00;100.00;100066.72;5011717;28;20609;-63
2023/08/18 04:50:46;;;;;;;8.50;7.53;;;;;;;19.03;100.00;100069.06;5013296;28;20229;-63
2023/08/18 04:53:12;;;;;;;8.00;7.33;;;;;;;19.01;100.00;100064.00;5034844;28;20260;-63
2023/08/18 04:55:37;;;;;;;7.67;6.97;;;;;;;19.12;100.00;100067.41;5030355;28;20204;-65
2023/08/18 04:58:03;;;;;;;8.03;7.23;;;;;;;19.24;100.00;100057.63;5031749;28;20641;-64
2023/08/18 05:00:29;;;;;;;8.10;7.30;;;;;;;19.18;100.00;100054.63;5020282;28;20777;-63
2023/08/18 05:02:54;;;;;;;9.57;7.40;;;;;;;19.25;100.00;100059.28;5023238;28;20269;-64
2023/08/18 05:05:20;;;;;;;7.77;7.00;;;;;;;19.30;100.00;100063.13;5011170;28;20692;-64
2023/08/18 05:07:45;;;;;;;7.83;7.07;;;;;;;19.40;100.00;100059.63;5010115;28;20166;-63
2023/08/18 05:10:11;;;;;;;7.33;6.73;;;;;;;19.35;100.00;100060.91;5002120;28;20272;-64
2023/08/18 05:12:37;;;;;;;7.37;6.67;;;;;;;19.38;100.00;100061.59;5025969;28;20199;-61
2023/08/18 05:15:03;;;;;;;6.87;6.17;;;;;;;19.49;100.00;100059.59;5031012;28;20689;-61
2023/08/18 05:17:29;;;;;;;6.43;5.90;;;;;;;19.62;100.00;100061.91;5034981;28;20229;-60
2023/08/18 05:19:54;;;;;;;9.17;5.53;;;;;;;19.62;100.00;100063.69;5034728;28;20259;-60
2023/08/18 05:22:21;;;;;;;8.80;6.13;;;;;;;19.67;100.00;100072.75;5021369;28;20225;-61
2023/08/18 05:24:48;;;;;;;6.33;5.73;;;;;;;19.72;100.00;100074.94;5014705;28;20182;-61
2023/08/18 05:27:13;;;;;;;6.50;5.80;;;;;;;19.99;100.00;100068.09;5010646;28;20179;-60
2023/08/18 05:29:39;;;;;;;8.60;5.83;;;;;;;20.18;100.00;100077.59;4999901;28;20253;-60
2023/08/18 05:32:04;;;;;;;7.63;6.00;;;;;;;20.27;100.00;100076.72;5023181;28;20312;-60
2023/08/18 05:34:29;;;;;;;7.13;5.63;;;;;;;20.31;100.00;100077.25;5034279;28;20181;-61
2023/08/18 05:36:54;;;;;;;6.30;5.57;;;;;;;20.28;100.00;100077.53;5034171;28;20692;-60
2023/08/18 05:39:20;;;;;;;7.20;5.63;;;;;;;20.38;100.00;100078.31;5034658;28;20201;-61
2023/08/18 05:41:45;;;;;;;6.23;5.63;;;;;;;20.32;100.00;100069.25;5021152;28;20214;-61
2023/08/18 05:44:10;;;;;;;7.00;5.03;;;;;;;20.38;100.00;100080.06;5013289;28;20178;-60
2023/08/18 05:46:35;;;;;;;8.33;5.73;;;;;;;20.51;100.00;100072.69;5014998;28;20187;-60
2023/08/18 05:49:01;;;;;;;6.57;5.87;;;;;;;20.50;100.00;100073.66;5012156;28;20179;-60
2023/08/18 05:51:26;;;;;;;6.67;5.20;;;;;;;20.24;100.00;100070.97;5015269;28;20685;-59
2023/08/18 05:53:51;;;;;;;8.33;5.60;;;;;;;20.26;100.00;100071.66;5019236;28;20209;-60
2023/08/18 05:56:17;;;;;;;10.87;6.37;;;;;;;20.36;100.00;100072.38;5014428;28;20182;-61
2023/08/18 05:58:43;;;;;;;7.20;5.57;;;;;;;20.35;100.00;100070.75;5013418;28;20646;-60
2023/08/18 06:01:08;;;;;;;8.23;5.10;;;;;;;20.41;100.00;100082.41;5012920;28;20228;-60
2023/08/18 06:03:34;;;;;;;8.57;5.80;;;;;;;20.50;100.00;100083.31;5021459;28;20186;-61
2023/08/18 06:06:03;;;;;;;8.13;5.27;;;;;;;20.68;100.00;100080.66;5013922;28;20477;-60
2023/08/18 06:08:28;;;;;;;5.90;5.33;;;;;;;20.79;100.00;100083.91;5012863;28;20182;-61
2023/08/18 06:10:55;;;;;;;6.30;5.17;;;;;;;20.83;100.00;100083.63;5013112;28;20304;-60
2023/08/18 06:13:20;;;;;;;7.67;5.07;;;;;;;21.04;100.00;100084.13;5032569;28;20256;-60
2023/08/18 06:15:45;;;;;;;6.77;5.30;;;;;;;20.89;100.00;100080.41;5032309;28;20269;-60
2023/08/18 06:18:10;;;;;;;5.67;5.03;;;;;;;20.93;100.00;100093.00;5033786;28;20248;-60
2023/08/18 06:20:36;;;;;;;5.43;4.90;;;;;;;20.96;100.00;100089.28;5023941;28;20972;-60
2023/08/18 06:23:01;;;;;;;5.93;5.43;;;;;;;20.88;100.00;100086.63;5024863;28;20191;-60
2023/08/18 06:25:26;;;;;;;5.67;5.17;;;;;;;20.91;100.00;100087.13;5013838;28;20195;-61
2023/08/18 06:27:52;;;;;;;6.67;4.90;;;;;;;21.00;100.00;100089.78;5013967;28;20191;-62
2023/08/18 06:30:17;;;;;;;6.40;4.90;;;;;;;21.07;100.00;100090.84;5006026;28;20170;-61
2023/08/18 06:32:44;;;;;;;8.43;4.70;;;;;;;20.95;100.00;100088.47;5026849;28;20665;-61
2023/08/18 06:35:10;;;;;;;5.57;5.07;;;;;;;21.06;100.00;100095.25;5013698;28;20238;-60
2023/08/18 06:37:35;;;;;;;5.53;5.03;;;;;;;21.20;100.00;100091.25;5013727;28;20583;-60
2023/08/18 06:40:00;;;;;;;5.10;4.70;;;;;;;21.25;100.00;100096.03;5013841;28;20198;-61
2023/08/18 06:42:25;;;;;;;5.20;4.70;;;;;;;21.50;100.00;100088.34;5018479;28;20617;-60
2023/08/18 06:44:51;;;;;;;6.23;4.60;;;;;;;21.68;100.00;100098.75;5012985;28;20178;-61
2023/08/18 06:47:16;;;;;;;6.17;4.87;;;;;;;22.03;100.00;100097.75;5011993;28;20190;-60
2023/08/18 06:49:41;;;;;;;4.60;4.17;;;;;;;22.53;100.00;100097.91;5013429;28;20383;-59
2023/08/18 06:52:07;;;;;;;7.93;3.97;;;;;;;23.19;100.00;100100.56;5034107;28;20217;-59
2023/08/18 06:54:33;;;;;;;6.20;4.27;;;;;;;24.01;100.00;100089.84;5032971;28;20205;-60
2023/08/18 06:56:58;;;;;;;5.80;3.72;;;;;;;24.43;100.00;100100.91;5033397;28;20196;-60
2023/08/18 06:59:24;;;;;;;4.60;3.85;;;;;;;24.81;100.00;100093.09;5032855;28;20277;-61
2023/08/18 07:01:50;;;;;;;4.90;3.45;;;;;;;25.30;100.00;100096.28;5021972;28;20226;-61
2023/08/18 07:04:15;;;;;;;5.80;4.00;;;;;;;25.39;100.00;100102.28;5013745;28;20233;-60
2023/08/18 07:06:44;;;;;;;4.10;3.38;;;;;;;25.87;100.00;100099.28;5006453;28;20182;-60
2023/08/18 07:09:09;;;;;;;5.90;3.40;;;;;;;26.42;100.00;100097.09;5013432;28;20202;-62
2023/08/18 07:11:35;;;;;;;5.70;3.30;;;;;;;26.53;100.00;100106.31;5026090;28;20591;-61
2023/08/18 07:14:00;;;;;;;6.57;3.70;;;;;;;26.40;100.00;100097.25;5031008;28;20190;-64
2023/08/18 07:16:25;;;;;;;7.30;3.47;;;;;;;26.40;100.00;100105.16;5032724;28;20201;-59
2023/08/18 07:18:51;;;;;;;6.68;3.75;;;;;;;26.23;100.00;100101.97;5032638;28;20198;-61
2023/08/18 07:21:16;;;;;;;6.10;3.22;;;;;;;26.33;100.00;100104.28;5021960;28;20327;-61
2023/08/18 07:23:41;;;;;;;7.30;3.85;;;;;;;26.72;100.00;100105.66;5016833;28;20186;-61
2023/08/18 07:26:06;;;;;;;6.05;3.20;;;;;;;27.02;100.00;100108.16;5010915;28;20183;-61
2023/08/18 07:28:32;;;;;;;5.57;3.80;;;;;;;26.42;100.00;100102.38;5011527;28;20283;-61
2023/08/18 07:31:04;;;;;;;5.32;3.80;;;;;;;26.73;100.00;100109.94;4988110;28;20233;-60
2023/08/18 07:33:30;;;;;;;5.50;3.47;;;;;;;26.82;100.00;100112.50;5020460;28;20190;-61
2023/08/18 07:35:56;;;;;;;5.82;3.75;;;;;;;26.25;100.00;100110.50;5011841;28;20307;-61
2023/08/18 07:38:21;;;;;;;4.55;3.75;;;;;;;26.51;100.00;100113.59;5012730;28;20286;-61
2023/08/18 07:40:46;;;;;;;6.55;3.75;;;;;;;27.27;100.00;100110.38;5008250;28;20709;-61
2023/08/18 07:43:11;;;;;;;4.75;3.65;;;;;;;26.88;100.00;100112.53;5022711;28;20193;-62
2023/08/18 07:45:37;;;;;;;5.20;3.75;;;;;;;26.79;100.00;100118.13;5011920;28;20193;-61
2023/08/18 07:48:03;;;;;;;6.20;3.58;;;;;;;27.34;100.00;100110.44;5012642;28;20593;-62
2023/08/18 07:50:28;;;;;;;4.60;3.47;;;;;;;27.17;100.00;100117.81;5005174;28;20311;-61
2023/08/18 07:52:53;;;;;;;6.05;3.70;;;;;;;27.58;100.00;100122.38;5024413;28;20190;-61
2023/08/18 07:55:21;;;;;;;6.78;3.70;;;;;;;28.20;100.00;100113.72;5012020;28;20531;-61
2023/08/18 07:57:47;;;;;;;3.90;3.22;;;;;;;28.39;100.00;100114.75;5012126;28;20190;-61
2023/08/18 08:00:17;;;;;;;6.20;3.50;;;;;;;28.67;100.00;100110.13;5002575;28;20244;-61
2023/08/18 08:02:44;;;;;;;5.68;3.55;;;;;;;29.52;95.98;100108.66;5026054;28;20182;-60
2023/08/18 08:05:10;;;;;;;4.40;3.60;;;;;;;29.42;94.69;100126.78;5011664;28;20221;-61
2023/08/18 08:07:35;;;;;;;7.55;3.58;;;;;;;30.38;89.29;100119.88;5011928;28;20178;-60
2023/08/18 08:10:04;;;;;;;5.60;3.88;;;;;;;29.21;95.62;100125.19;5010681;28;20212;-61
2023/08/18 08:12:31;;;;;;;6.97;3.33;;;;;;;29.84;92.76;100111.34;5018622;28;20233;-61
2023/08/18 08:14:57;;;;;;;6.13;3.45;;;;;;;30.35;88.32;100122.97;5031029;28;20234;-62
2023/08/18 08:17:24;;;;;;;4.30;3.17;;;;;;;29.76;91.16;100130.97;5023063;28;20605;-61
2023/08/18 08:19:49;;;;;;;6.80;3.45;;;;;;;30.85;85.41;100127.53;5027894;28;20205;-60
2023/08/18 08:22:16;;;;;;;6.63;3.40;;;;;;;30.84;84.94;100135.72;5018782;28;20218;-59
2023/08/18 08:24:42;;;;;;;5.75;3.58;;;;;;;30.38;89.55;100129.69;5011494;28;20185;-60
2023/08/18 08:27:07;;;;;;;6.80;3.45;;;;;;;30.39;90.18;100131.28;5011677;28;20574;-60
2023/08/18 08:29:32;;;;;;;5.03;3.28;;;;;;;31.15;85.41;100129.53;5011715;28;20189;-60
2023/08/18 08:31:57;;;;;;;3.78;3.03;;;;;;;31.17;81.06;100129.31;5031627;28;20236;-60
2023/08/18 08:34:23;;;;;;;5.03;3.10;;;;;;;30.48;89.07;100121.22;5031589;28;20289;-61
2023/08/18 08:36:48;;;;;;;6.53;3.65;;;;;;;29.99;90.58;100124.38;5031506;28;20217;-60
2023/08/18 08:39:13;;;;;;;4.22;3.83;;;;;;;30.18;88.72;100122.66;5030985;28;20209;-61
2023/08/18 08:41:39;;;;;;;5.20;3.70;;;;;;;29.82;91.77;100116.06;5031688;28;20235;-58
2023/08/18 08:44:04;;;;;;;5.40;3.38;;;;;;;30.63;87.44;100120.97;5034158;28;20210;-62
2023/08/18 08:46:30;;;;;;;5.95;3.40;;;;;;;30.65;86.51;100116.25;5031195;28;20214;-60
2023/08/18 08:49:00;;;;;;;5.72;3.70;;;;;;;30.67;85.61;100122.16;5029005;28;20656;-59
2023/08/18 08:51:28;;;;;;;4.32;3.35;;;;;;;30.50;87.85;100125.34;5030142;28;20232;-60
2023/08/18 08:53:59;;;;;;;4.72;3.35;;;;;;;31.86;77.92;100123.88;5035251;28;20213;-59
2023/08/18 08:56:26;;;;;;;7.65;3.80;;;;;;;31.25;81.58;100123.72;5031231;28;20230;-60
2023/08/18 08:58:52;;;;;;;3.28;2.95;;;;;;;31.50;81.12;100128.97;5030969;28;20243;-59
2023/08/18 09:01:18;;;;;;;7.07;3.50;;;;;;;31.94;76.18;100120.09;5013122;28;20652;-60
2023/08/18 09:03:44;;;;;;;8.30;3.75;;;;;;;31.96;75.09;100132.13;5017285;28;20190;-61
2023/08/18 09:06:11;;;;;;;6.65;3.90;;;;;;;31.41;78.92;100125.00;5010978;28;20232;-61
2023/08/18 09:08:36;;;;;;;5.57;3.40;;;;;;;32.01;76.28;100132.25;5010525;28;20442;-60
2023/08/18 09:11:02;;;;;;;7.30;3.75;;;;;;;33.10;65.74;100125.09;5012514;28;20275;-59
2023/08/18 09:13:27;;;;;;;5.45;3.78;;;;;;;33.19;65.58;100128.22;5019998;28;20185;-61
2023/08/18 09:15:52;;;;;;;10.75;4.32;;;;;;;33.21;62.29;100130.69;5024892;28;20224;-60
2023/08/18 09:18:19;;;;;;;5.45;3.75;;;;;;;32.48;68.74;100128.97;5029593;28;20693;-60
2023/08/18 09:20:45;;;;;;;7.80;4.10;;;;;;;33.66;58.59;100135.34;5012725;28;20233;-60
2023/08/18 09:23:11;;;;;;;8.60;3.97;;;;;;;33.45;61.67;100121.63;5017693;28;20683;-60
2023/08/18 09:25:37;;;;;;;6.22;3.97;;;;;;;33.57;61.46;100118.91;5007535;28;20188;-60
2023/08/18 09:28:05;;;;;;;8.05;4.18;;;;;;;34.37;55.15;100123.63;5003157;28;20241;-61
2023/08/18 09:30:31;;;;;;;11.35;4.18;;;;;;;34.30;54.65;100121.09;5004533;28;20665;-62
2023/08/18 09:33:00;;;;;;;5.50;3.28;;;;;;;34.71;60.06;100121.78;5015887;28;20647;-61
2023/08/18 09:35:25;;;;;;;7.45;3.58;;;;;;;35.04;51.57;100117.47;5006690;28;20188;-60
2023/08/18 09:37:57;;;;;;;7.22;3.45;;;;;;;35.63;47.11;100117.97;4994255;28;20650;-60
2023/08/18 09:40:23;;;;;;;6.13;3.30;;;;;;;37.31;42.64;100118.78;4989650;28;20227;-61
2023/08/18 09:42:49;;;;;;;6.45;3.70;;;;;;;36.08;45.16;100114.16;5039788;28;20549;-61
2023/08/18 09:45:14;;;;;;;7.95;3.67;;;;;;;36.04;45.52;100113.06;5029157;28;20186;-61
2023/08/18 09:47:42;;;;;;;11.35;3.65;;;;;;;36.91;44.25;100110.28;5030512;28;20630;-62
2023/08/18 09:50:10;;;;;;;9.50;4.10;;;;;;;35.69;46.08;100112.41;5020450;28;20197;-61
2023/08/18 09:52:37;;;;;;;8.27;4.30;;;;;;;34.45;53.08;100101.88;5006103;28;20198;-61
2023/08/18 09:55:11;;;;;;;7.15;3.75;;;;;;;34.80;51.87;100102.69;5010592;28;20764;-61
2023/08/18 09:57:52;;;;;;;8.00;3.55;;;;;;;34.78;51.80;100105.56;5010595;28;20175;-61
2023/08/18 10:00:20;;;;;;;6.30;3.63;;;;;;;37.50;42.40;100111.13;5004081;28;20788;-61
2023/08/18 10:02:46;;;;;;;5.25;3.53;;;;;;;36.54;42.80;100110.28;5026258;28;20569;-60
2023/08/18 10:05:14;;;;;;;7.93;3.90;;;;;;;36.86;42.76;100112.94;5004828;28;20194;-61
2023/08/18 10:07:39;;;;;;;6.63;3.80;;;;;;;37.18;40.82;100106.69;5012537;28;20657;-61
2023/08/18 10:10:06;;;;;;;5.88;3.50;;;;;;;37.04;40.68;100110.88;4988928;28;20183;-61
2023/08/18 10:12:31;;;;;;;7.97;3.90;;;;;;;38.55;39.33;100105.63;5041825;28;20636;-61
2023/08/18 10:14:58;;;;;;;6.60;3.55;;;;;;;38.42;40.12;100101.63;5032755;28;20217;-61
2023/08/18 10:17:24;;;;;;;4.93;3.30;;;;;;;38.52;38.53;100104.31;5033781;28;20280;-61
2023/08/18 10:19:55;;;;;;;6.25;5.18;;;;;;;38.32;37.85;100102.44;5033652;28;20244;-60
2023/08/18 10:22:25;;;;;;;4.85;3.72;;;;;;;38.17;37.76;100100.53;4996174;28;20815;-60
2023/08/18 10:24:52;;;;;;;8.55;3.10;;;;;;;39.46;35.41;100099.47;5013268;28;20206;-60
2023/08/18 10:27:26;;;;;;;9.05;3.78;;;;;;;40.38;33.78;100108.84;5010071;28;20194;-63
2023/08/18 10:29:57;;;;;;;4.40;3.15;;;;;;;38.66;36.21;100096.47;5006290;28;20265;-63
2023/08/18 10:32:23;;;;;;;4.50;2.95;;;;;;;37.98;36.39;100094.06;5023420;28;20765;-63
2023/08/18 10:34:50;;;;;;;6.88;3.00;;;;;;;39.25;34.38;100094.22;5022865;28;20216;-63
2023/08/18 10:37:19;;;;;;;8.98;3.50;;;;;;;39.13;35.25;100091.00;5042963;28;20190;-61
2023/08/18 10:39:45;;;;;;;9.82;3.47;;;;;;;39.81;33.27;100101.19;5044458;28;20206;-62
2023/08/18 10:42:15;;;;;;;4.68;3.38;;;;;;;38.70;33.85;100092.19;5031889;28;20645;-63
2023/08/18 10:45:06;;;;;;;4.97;3.38;;;;;;;34.39;46.57;100076.94;5043825;28;20644;-62
2023/08/18 10:47:32;;;;;;;5.18;3.10;;;;;;;34.53;51.26;100079.28;5031961;28;20178;-63
2023/08/18 10:50:04;;;;;;;5.03;3.63;;;;;;;33.91;57.68;100071.06;5041218;28;20185;-62
2023/08/18 10:52:30;;;;;;;6.80;3.35;;;;;;;33.00;64.29;100063.63;5008390;28;20297;-63
2023/08/18 10:54:56;;;;;;;4.68;3.30;;;;;;;31.37;71.41;100067.97;5009964;28;20233;-63
2023/08/18 10:57:22;;;;;;;5.60;3.75;;;;;;;30.30;83.41;100059.09;5011494;28;20199;-63
2023/08/18 10:59:48;;;;;;;4.05;2.97;;;;;;;29.58;88.76;100051.34;5014254;28;20545;-63
2023/08/18 11:02:13;;;;;;;6.93;3.33;;;;;;;29.57;84.48;100050.53;5040494;28;20229;-60
2023/08/18 11:04:39;;;;;;;3.80;2.90;;;;;;;29.38;83.63;100049.56;5048172;28;20200;-60
2023/08/18 11:07:04;;;;;;;3.97;3.38;;;;;;;28.93;90.38;100046.81;5035767;28;20177;-61
2023/08/18 11:09:31;;;;;;;6.38;3.58;;;;;;;28.88;93.51;100042.13;5034731;28;20216;-61
2023/08/18 11:11:56;;;;;;;8.70;3.92;;;;;;;28.87;93.63;100045.78;5016526;28;20268;-61
2023/08/18 11:14:21;;;;;;;6.70;3.70;;;;;;;28.81;93.51;100043.97;5019976;28;20245;-60